createdAt,value
2018-06-03T00:00:03.042Z,37.28
2018-06-03T00:02:31.570Z,34.98
2018-06-03T00:05:00.081Z,37.05
2018-06-03T00:07:28.595Z,37.42
2018-06-03T00:09:56.781Z,38.70
2018-06-03T00:12:25.326Z,33.73
2018-06-03T00:14:53.839Z,40.23
2018-06-03T00:17:22.379Z,40.88
2018-06-03T00:19:50.922Z,38.73
2018-06-03T00:22:28.699Z,42.38
2018-06-03T00:24:57.243Z,41.55
2018-06-03T00:27:25.928Z,45.05
2018-06-03T00:29:54.461Z,45.73
2018-06-03T00:32:22.991Z,38.63
2018-06-03T00:34:51.564Z,41.88
2018-06-03T00:37:20.103Z,39.88
2018-06-03T00:39:48.597Z,41.28
2018-06-03T00:42:17.151Z,36.90
2018-06-03T00:44:45.667Z,38.40
2018-06-03T00:47:14.166Z,40.95
2018-06-03T00:49:42.682Z,41.37
2018-06-03T00:52:11.199Z,35.75
2018-06-03T00:54:39.723Z,47.33
2018-06-03T00:57:11.527Z,33.42
2018-06-03T00:59:40.095Z,40.73
2018-06-03T01:02:08.637Z,39.00
2018-06-03T01:04:37.159Z,43.70
2018-06-03T01:07:05.689Z,40.03
2018-06-03T01:09:34.194Z,40.78
2018-06-03T01:12:02.727Z,39.65
2018-06-03T01:14:31.241Z,36.13
2018-06-03T01:16:59.756Z,41.95
2018-06-03T01:19:28.278Z,39.63
2018-06-03T01:21:56.805Z,33.90
2018-06-03T01:24:25.334Z,37.78
2018-06-03T01:26:53.866Z,40.23
2018-06-03T01:29:22.355Z,35.20
2018-06-03T01:31:50.843Z,37.55
2018-06-03T01:34:19.333Z,38.92
2018-06-03T01:36:47.862Z,39.98
2018-06-03T01:39:16.866Z,43.55
2018-06-03T01:41:45.390Z,34.05
2018-06-03T01:44:13.900Z,38.23
2018-06-03T01:46:42.414Z,39.98
2018-06-03T01:49:10.968Z,40.95
2018-06-03T01:51:39.458Z,36.00
2018-06-03T01:54:08.026Z,44.08
2018-06-03T01:56:36.626Z,39.30
2018-06-03T01:59:05.207Z,43.92
2018-06-03T02:01:33.746Z,34.95
2018-06-03T02:04:02.289Z,49.10
2018-06-03T02:06:30.851Z,44.23
2018-06-03T02:08:59.386Z,47.15
2018-06-03T02:11:27.902Z,41.10
2018-06-03T02:13:56.465Z,39.60
2018-06-03T02:16:24.995Z,49.30
2018-06-03T02:18:53.505Z,49.55
2018-06-03T02:21:22.047Z,47.17
2018-06-03T02:23:50.565Z,47.00
2018-06-03T02:26:19.102Z,41.18
2018-06-03T02:28:47.589Z,50.45
2018-06-03T02:31:16.099Z,48.20
2018-06-03T02:33:44.588Z,44.42
2018-06-03T02:36:13.105Z,43.50
2018-06-03T02:38:41.650Z,52.67
2018-06-03T02:41:10.163Z,49.33
2018-06-03T02:43:38.668Z,48.17
2018-06-03T02:46:07.206Z,52.27
2018-06-03T02:48:35.746Z,48.90
2018-06-03T02:51:04.274Z,43.45
2018-06-03T02:53:32.917Z,42.43
2018-06-03T02:56:01.411Z,40.90
2018-06-03T02:58:29.940Z,49.70
2018-06-03T03:00:58.519Z,42.27
2018-06-03T03:03:27.026Z,49.85
2018-06-03T03:05:55.230Z,46.28
2018-06-03T03:08:23.701Z,46.77
2018-06-03T03:10:52.216Z,44.38
2018-06-03T03:13:20.759Z,46.85
2018-06-03T03:15:49.276Z,46.65
2018-06-03T03:18:17.803Z,42.67
2018-06-03T03:20:46.321Z,45.38
2018-06-03T03:23:14.819Z,46.00
2018-06-03T03:25:43.406Z,37.95
2018-06-03T03:28:11.937Z,45.65
2018-06-03T03:30:40.483Z,54.48
2018-06-03T03:33:08.988Z,45.38
2018-06-03T03:35:37.558Z,45.58
2018-06-03T03:38:06.086Z,42.45
2018-06-03T03:40:34.610Z,40.92
2018-06-03T03:43:03.108Z,49.10
2018-06-03T03:45:31.621Z,44.03
2018-06-03T03:48:00.148Z,45.20
2018-06-03T03:50:28.802Z,48.42
2018-06-03T03:52:57.316Z,40.63
2018-06-03T03:55:25.814Z,47.40
2018-06-03T03:57:54.283Z,44.18
2018-06-03T04:00:23.111Z,48.20
2018-06-03T04:02:51.650Z,51.85
2018-06-03T04:05:20.154Z,52.13
2018-06-03T04:07:48.671Z,50.65
2018-06-03T04:10:17.218Z,54.20
2018-06-03T04:12:45.778Z,54.38
2018-06-03T04:15:14.325Z,48.30
2018-06-03T04:17:42.829Z,63.08
2018-06-03T04:20:11.323Z,51.68
2018-06-03T04:22:39.866Z,53.15
2018-06-03T04:25:08.773Z,52.83
2018-06-03T04:27:37.332Z,52.93
2018-06-03T04:30:06.604Z,49.08
2018-06-03T04:32:35.108Z,44.90
2018-06-03T04:35:03.726Z,43.58
2018-06-03T04:37:32.192Z,43.17
2018-06-03T04:40:00.706Z,48.68
2018-06-03T04:42:29.232Z,45.88
2018-06-03T04:44:57.713Z,45.33
2018-06-03T04:47:26.414Z,44.70
2018-06-03T04:49:54.958Z,41.50
2018-06-03T04:52:23.475Z,46.63
2018-06-03T04:54:51.975Z,53.13
2018-06-03T04:57:20.551Z,58.08
2018-06-03T04:59:49.418Z,51.60
2018-06-03T05:02:17.923Z,47.50
2018-06-03T05:04:46.419Z,44.88
2018-06-03T05:07:14.953Z,45.80
2018-06-03T05:09:43.471Z,49.50
2018-06-03T05:12:12.274Z,54.08
2018-06-03T05:14:40.924Z,52.67
2018-06-03T05:17:09.561Z,49.23
2018-06-03T05:19:38.073Z,45.58
2018-06-03T05:22:06.710Z,43.80
2018-06-03T05:24:35.208Z,46.48
2018-06-03T05:27:03.913Z,45.10
2018-06-03T05:29:32.427Z,45.52
2018-06-03T05:32:00.980Z,47.15
2018-06-03T05:34:29.484Z,39.25
2018-06-03T05:36:57.950Z,44.50
2018-06-03T05:39:26.596Z,50.70
2018-06-03T05:41:55.101Z,41.88
2018-06-03T05:44:23.643Z,39.18
2018-06-03T05:46:52.206Z,38.08
2018-06-03T05:49:20.697Z,46.45
2018-06-03T05:51:49.210Z,37.23
2018-06-03T05:54:17.687Z,46.28
2018-06-03T05:56:46.271Z,38.90
2018-06-03T05:59:14.809Z,36.65
2018-06-03T06:01:43.682Z,42.48
2018-06-03T06:04:12.199Z,36.35
2018-06-03T06:06:40.711Z,41.23
2018-06-03T06:09:09.232Z,43.98
2018-06-03T06:11:37.758Z,41.33
2018-06-03T06:14:06.285Z,44.10
2018-06-03T06:16:34.816Z,38.40
2018-06-03T06:19:03.367Z,42.05
2018-06-03T06:21:31.905Z,36.80
2018-06-03T06:24:00.409Z,34.18
2018-06-03T06:26:28.936Z,34.65
2018-06-03T06:28:57.424Z,37.88
2018-06-03T06:31:25.914Z,41.80
2018-06-03T06:33:54.440Z,43.83
2018-06-03T06:36:22.942Z,36.45
2018-06-03T06:38:51.446Z,36.63
2018-06-03T06:41:19.958Z,39.08
2018-06-03T06:43:48.506Z,36.95
2018-06-03T06:46:17.040Z,36.05
2018-06-03T06:48:45.576Z,42.93
2018-06-03T06:51:14.120Z,34.73
2018-06-03T06:53:42.635Z,38.63
2018-06-03T06:56:11.145Z,37.65
2018-06-03T06:58:39.652Z,36.93
2018-06-03T07:01:08.238Z,35.40
2018-06-03T07:03:36.720Z,34.18
2018-06-03T07:06:08.016Z,34.53
2018-06-03T07:08:36.539Z,31.90
2018-06-03T07:11:05.022Z,32.93
2018-06-03T07:13:33.533Z,32.67
2018-06-03T07:16:02.103Z,41.23
2018-06-03T07:18:30.611Z,32.57
2018-06-03T07:20:59.178Z,36.30
2018-06-03T07:23:27.713Z,32.65
2018-06-03T07:25:56.305Z,35.70
2018-06-03T07:28:24.827Z,35.23
2018-06-03T07:30:53.396Z,33.15
2018-06-03T07:33:21.958Z,33.58
2018-06-03T07:35:50.473Z,37.80
2018-06-03T07:38:21.109Z,32.93
2018-06-03T07:40:49.624Z,37.35
2018-06-03T07:43:18.180Z,38.50
2018-06-03T07:45:46.718Z,30.00
2018-06-03T07:48:15.253Z,72.00
2018-06-03T07:50:43.826Z,29.23
2018-06-03T07:53:12.362Z,36.55
2018-06-03T07:55:40.878Z,34.27
2018-06-03T07:58:09.486Z,33.97
2018-06-03T08:00:38.023Z,30.27
2018-06-03T08:03:06.565Z,28.80
2018-06-03T08:05:35.072Z,36.00
2018-06-03T08:08:03.605Z,37.07
2018-06-03T08:10:32.099Z,43.50
2018-06-03T08:13:00.590Z,31.43
2018-06-03T08:15:29.139Z,36.00
2018-06-03T08:17:57.658Z,33.00
2018-06-03T08:20:26.260Z,34.17
2018-06-03T08:22:54.792Z,35.00
2018-06-03T08:25:23.349Z,36.73
2018-06-03T08:27:51.977Z,35.70
2018-06-03T08:30:20.533Z,33.30
2018-06-03T08:32:49.073Z,34.55
2018-06-03T08:35:17.571Z,32.07
2018-06-03T08:37:46.104Z,32.00
2018-06-03T08:40:14.715Z,34.40
2018-06-03T08:42:43.287Z,35.07
2018-06-03T08:45:11.827Z,34.43
2018-06-03T08:47:40.405Z,31.40
2018-06-03T08:50:08.960Z,33.67
2018-06-03T08:52:37.510Z,33.07
2018-06-03T08:55:06.050Z,34.23
2018-06-03T08:57:34.590Z,28.17
2018-06-03T09:00:03.278Z,33.57
2018-06-03T09:02:31.951Z,28.40
2018-06-03T09:05:00.484Z,29.63
2018-06-03T09:07:29.091Z,34.90
2018-06-03T09:09:57.644Z,33.20
2018-06-03T09:12:26.205Z,32.20
2018-06-03T09:14:55.890Z,30.40
2018-06-03T09:17:24.452Z,35.17
2018-06-03T09:19:53.053Z,34.60
2018-06-03T09:22:21.620Z,27.20
2018-06-03T09:24:50.161Z,30.83
2018-06-03T09:27:18.713Z,28.03
2018-06-03T09:29:47.286Z,28.93
2018-06-03T09:32:15.463Z,28.70
2018-06-03T09:34:44.192Z,28.43
2018-06-03T09:37:12.658Z,27.03
2018-06-03T09:39:41.209Z,28.50
2018-06-03T09:42:09.833Z,25.83
2018-06-03T09:44:38.411Z,32.60
2018-06-03T09:47:07.012Z,27.30
2018-06-03T09:49:35.519Z,33.03
2018-06-03T09:52:04.094Z,35.93
2018-06-03T09:54:32.614Z,27.67
2018-06-03T09:57:01.137Z,29.67
2018-06-03T09:59:29.668Z,30.40
2018-06-03T10:01:58.266Z,28.27
2018-06-03T10:04:26.791Z,29.47
2018-06-03T10:06:55.822Z,24.63
2018-06-03T10:09:24.477Z,28.50
2018-06-03T10:11:52.990Z,24.77
2018-06-03T10:14:21.528Z,26.00
2018-06-03T10:16:50.074Z,25.20
2018-06-03T10:19:18.578Z,30.43
2018-06-03T10:21:47.134Z,26.47
2018-06-03T10:24:15.682Z,28.83
2018-06-03T10:26:44.233Z,27.27
2018-06-03T10:29:12.751Z,25.60
2018-06-03T10:31:41.290Z,24.70
2018-06-03T10:34:09.911Z,26.03
2018-06-03T10:36:38.434Z,24.80
2018-06-03T10:39:07.697Z,27.77
2018-06-03T10:41:36.278Z,30.30
2018-06-03T10:44:05.183Z,34.60
2018-06-03T10:46:33.695Z,23.23
2018-06-03T10:49:05.082Z,24.03
2018-06-03T10:51:34.749Z,23.03
2018-06-03T10:54:03.482Z,24.40
2018-06-03T10:56:32.041Z,20.73
2018-06-03T10:59:00.593Z,25.97
2018-06-03T11:01:29.452Z,22.50
2018-06-03T11:03:58.016Z,25.47
2018-06-03T11:06:27.255Z,27.97
2018-06-03T11:08:55.788Z,32.83
2018-06-03T11:11:24.537Z,30.30
2018-06-03T11:13:53.065Z,33.40
2018-06-03T11:16:21.599Z,35.93
2018-06-03T11:18:50.167Z,30.97
2018-06-03T11:21:18.704Z,33.57
2018-06-03T11:23:47.380Z,27.40
2018-06-03T11:26:15.897Z,29.80
2018-06-03T11:28:44.465Z,28.10
2018-06-03T11:31:13.116Z,23.97
2018-06-03T11:33:41.635Z,28.00
2018-06-03T11:36:10.150Z,21.57
2018-06-03T11:38:39.090Z,22.20
2018-06-03T11:41:07.613Z,22.30
2018-06-03T11:43:36.143Z,27.00
2018-06-03T11:46:04.669Z,25.70
2018-06-03T11:48:33.202Z,30.43
2018-06-03T11:51:01.698Z,23.67
2018-06-03T11:53:29.892Z,22.27
2018-06-03T11:55:58.450Z,24.63
2018-06-03T11:58:54.527Z,25.00
2018-06-03T12:01:23.607Z,24.03
2018-06-03T12:03:52.104Z,23.80
2018-06-03T12:06:20.620Z,19.00
2018-06-03T12:08:49.145Z,25.17
2018-06-03T12:11:17.703Z,26.30
2018-06-03T12:13:46.290Z,28.53
2018-06-03T12:16:14.854Z,26.40
2018-06-03T12:18:43.466Z,28.93
2018-06-03T12:21:11.974Z,26.07
2018-06-03T12:23:40.513Z,23.90
2018-06-03T12:26:09.034Z,29.60
2018-06-03T12:28:37.585Z,25.17
2018-06-03T12:31:06.191Z,24.37
2018-06-03T12:33:34.707Z,21.83
2018-06-03T12:36:03.228Z,30.60
2018-06-03T12:38:31.727Z,23.80
2018-06-03T12:41:00.251Z,24.07
2018-06-03T12:43:28.785Z,28.27
2018-06-03T12:45:57.385Z,26.23
2018-06-03T12:48:25.880Z,28.60
2018-06-03T12:50:54.427Z,26.73
2018-06-03T12:53:22.962Z,25.03
2018-06-03T12:55:51.485Z,29.87
2018-06-03T12:58:19.983Z,21.97
2018-06-03T13:00:48.507Z,32.40
2018-06-03T13:03:17.010Z,28.37
2018-06-03T13:05:45.554Z,24.73
2018-06-03T13:08:14.067Z,34.73
2018-06-03T13:10:42.575Z,31.37
2018-06-03T13:13:11.094Z,25.23
2018-06-03T13:15:39.679Z,25.60
2018-06-03T13:18:08.444Z,26.60
2018-06-03T13:20:37.020Z,24.75
2018-06-03T13:23:05.946Z,22.98
2018-06-03T13:25:34.495Z,21.67
2018-06-03T13:28:03.007Z,22.93
2018-06-03T13:30:31.590Z,21.37
2018-06-03T13:33:00.137Z,23.10
2018-06-03T13:35:28.728Z,22.93
2018-06-03T13:37:57.304Z,22.60
2018-06-03T13:40:25.892Z,23.33
2018-06-03T13:42:54.519Z,21.10
2018-06-03T13:45:23.061Z,16.83
2018-06-03T13:47:51.672Z,23.13
2018-06-03T13:50:20.241Z,22.77
2018-06-03T13:52:48.775Z,20.80
2018-06-03T13:55:17.354Z,20.20
2018-06-03T13:57:46.002Z,21.67
2018-06-03T14:00:14.509Z,19.40
2018-06-03T14:02:43.027Z,17.60
2018-06-03T14:05:11.558Z,21.07
2018-06-03T14:07:40.149Z,16.67
2018-06-03T14:10:08.683Z,22.10
2018-06-03T14:12:37.214Z,16.30
2018-06-03T14:15:05.847Z,16.70
2018-06-03T14:17:34.435Z,16.30
2018-06-03T14:20:03.034Z,17.93
2018-06-03T14:22:31.588Z,19.90
2018-06-03T14:25:00.216Z,20.30
2018-06-03T14:27:28.769Z,17.10
2018-06-03T14:29:57.344Z,19.50
2018-06-03T14:32:26.033Z,15.43
2018-06-03T14:34:54.574Z,17.00
2018-06-03T14:37:22.793Z,18.83
2018-06-03T14:39:51.445Z,13.53
2018-06-03T14:42:19.948Z,17.13
2018-06-03T14:44:48.537Z,16.17
2018-06-03T14:47:17.082Z,17.00
2018-06-03T14:49:45.594Z,18.47
2018-06-03T14:52:14.222Z,13.30
2018-06-03T14:54:42.781Z,14.33
2018-06-03T14:57:11.402Z,15.90
2018-06-03T14:59:39.897Z,17.03
2018-06-03T15:02:08.443Z,15.53
2018-06-03T15:04:37.063Z,15.40
2018-06-03T15:07:05.607Z,18.10
2018-06-03T15:09:34.133Z,15.90
2018-06-03T15:12:02.684Z,18.57
2018-06-03T15:14:31.222Z,14.83
2018-06-03T15:16:59.757Z,14.87
2018-06-03T15:19:28.326Z,15.23
2018-06-03T15:21:56.964Z,15.80
2018-06-03T15:24:25.494Z,17.30
2018-06-03T15:26:54.037Z,16.90
2018-06-03T15:29:22.624Z,14.87
2018-06-03T15:31:51.142Z,15.87
2018-06-03T15:34:19.677Z,17.60
2018-06-03T15:36:48.367Z,16.90
2018-06-03T15:39:17.312Z,16.60
2018-06-03T15:41:45.873Z,12.90
2018-06-03T15:44:14.406Z,13.43
2018-06-03T15:46:43.031Z,16.87
2018-06-03T15:49:11.605Z,14.73
2018-06-03T15:51:42.209Z,22.07
2018-06-03T15:54:10.800Z,15.80
2018-06-03T15:56:39.332Z,17.27
2018-06-03T15:59:07.875Z,14.43
2018-06-03T16:01:36.422Z,15.93
2018-06-03T16:04:04.960Z,18.20
2018-06-03T16:06:33.497Z,13.67
2018-06-03T16:09:02.729Z,13.53
2018-06-03T16:11:31.467Z,15.00
2018-06-03T16:14:00.037Z,12.87
2018-06-03T16:16:28.564Z,11.80
2018-06-03T16:18:57.222Z,15.37
2018-06-03T16:21:25.762Z,12.93
2018-06-03T16:23:54.316Z,13.83
2018-06-03T16:26:22.838Z,12.90
2018-06-03T16:28:53.339Z,14.53
2018-06-03T16:31:21.939Z,13.97
2018-06-03T16:33:50.562Z,15.10
2018-06-03T16:36:19.095Z,14.97
2018-06-03T16:38:47.711Z,11.97
2018-06-03T16:41:16.250Z,15.87
2018-06-03T16:43:44.762Z,13.07
2018-06-03T16:46:13.365Z,15.00
2018-06-03T16:48:41.894Z,13.10
2018-06-03T16:51:10.471Z,17.90
2018-06-03T16:53:39.014Z,14.57
2018-06-03T16:56:07.590Z,12.33
2018-06-03T16:58:36.266Z,11.87
2018-06-03T17:01:04.901Z,12.07
2018-06-03T17:03:33.501Z,9.07
2018-06-03T17:06:02.133Z,10.97
2018-06-03T17:08:30.708Z,8.63
2018-06-03T17:10:59.306Z,9.83
2018-06-03T17:13:27.858Z,11.70
2018-06-03T17:15:56.420Z,11.20
2018-06-03T17:18:25.002Z,9.40
2018-06-03T17:20:53.495Z,11.40
2018-06-03T17:23:22.074Z,9.57
2018-06-03T17:25:51.099Z,9.20
2018-06-03T17:28:19.619Z,10.33
2018-06-03T17:30:48.171Z,8.30
2018-06-03T17:33:16.685Z,7.97
2018-06-03T17:35:45.235Z,9.30
2018-06-03T17:38:13.734Z,7.50
2018-06-03T17:40:42.275Z,8.50
2018-06-03T17:43:10.838Z,9.17
2018-06-03T17:45:39.350Z,12.10
2018-06-03T17:48:07.903Z,7.43
2018-06-03T17:50:36.433Z,9.27
2018-06-03T17:53:04.957Z,7.80
2018-06-03T17:55:33.524Z,6.93
2018-06-03T17:58:02.079Z,7.93
2018-06-03T18:00:30.741Z,7.00
2018-06-03T18:02:59.254Z,6.50
2018-06-03T18:05:27.775Z,7.37
2018-06-03T18:07:56.290Z,7.20
2018-06-03T18:10:24.842Z,6.53
2018-06-03T18:12:53.349Z,6.60
2018-06-03T18:15:21.851Z,6.63
2018-06-03T18:17:50.392Z,7.67
2018-06-03T18:20:18.990Z,6.80
2018-06-03T18:22:47.506Z,6.57
2018-06-03T18:25:16.052Z,6.67
2018-06-03T18:27:44.592Z,6.90
2018-06-03T18:30:13.095Z,6.50
2018-06-03T18:32:42.709Z,6.27
2018-06-03T18:35:11.261Z,6.43
2018-06-03T18:37:39.761Z,6.80
2018-06-03T18:40:08.415Z,6.27
2018-06-03T18:42:37.112Z,6.23
2018-06-03T18:45:06.315Z,6.10
2018-06-03T18:47:34.943Z,7.53
2018-06-03T18:50:04.476Z,6.10
2018-06-03T18:52:33.065Z,6.03
2018-06-03T18:55:01.608Z,5.97
2018-06-03T18:57:30.107Z,5.63
2018-06-03T18:59:58.720Z,6.87
2018-06-03T19:02:27.301Z,5.87
2018-06-03T19:04:58.273Z,6.63
2018-06-03T19:07:26.798Z,6.33
2018-06-03T19:09:55.308Z,6.87
2018-06-03T19:12:23.864Z,8.10
2018-06-03T19:14:52.494Z,7.10
2018-06-03T19:17:20.995Z,13.20
2018-06-03T19:19:49.524Z,7.77
2018-06-03T19:22:18.066Z,9.20
2018-06-03T19:24:46.582Z,8.27
2018-06-03T19:27:15.123Z,12.17
2018-06-03T19:29:43.713Z,7.70
2018-06-03T19:32:12.359Z,8.27
2018-06-03T19:34:40.895Z,8.47
2018-06-03T19:37:09.402Z,7.93
2018-06-03T19:39:37.931Z,9.27
2018-06-03T19:42:06.484Z,10.33
2018-06-03T19:44:35.005Z,11.13
2018-06-03T19:47:03.547Z,10.33
2018-06-03T19:49:32.075Z,9.93
2018-06-03T19:52:01.406Z,9.27
2018-06-03T19:54:29.975Z,9.27
2018-06-03T19:56:58.554Z,9.33
2018-06-03T19:59:27.097Z,9.80
2018-06-03T20:01:55.643Z,9.00
2018-06-03T20:04:24.189Z,10.23
2018-06-03T20:06:52.737Z,11.88
2018-06-03T20:09:21.295Z,12.28
2018-06-03T20:11:49.795Z,9.73
2018-06-03T20:14:18.323Z,10.30
2018-06-03T20:16:46.940Z,11.08
2018-06-03T20:19:16.169Z,10.15
2018-06-03T20:21:44.738Z,11.35
2018-06-03T20:24:13.271Z,12.78
2018-06-03T20:26:41.838Z,10.03
2018-06-03T20:29:10.420Z,11.83
2018-06-03T20:31:38.963Z,10.18
2018-06-03T20:34:07.154Z,17.45
2018-06-03T20:36:35.680Z,12.63
2018-06-03T20:39:06.067Z,12.90
2018-06-03T20:41:34.595Z,11.25
2018-06-03T20:44:03.337Z,11.35
2018-06-03T20:46:31.836Z,11.50
2018-06-03T20:49:00.363Z,11.93
2018-06-03T20:51:28.874Z,14.73
2018-06-03T20:53:57.415Z,11.53
2018-06-03T20:56:25.947Z,12.70
2018-06-03T20:58:54.486Z,12.90
2018-06-03T21:01:23.013Z,14.00
2018-06-03T21:03:51.547Z,12.65
2018-06-03T21:06:20.098Z,15.53
2018-06-03T21:08:48.643Z,13.95
2018-06-03T21:11:17.172Z,13.80
2018-06-03T21:13:45.684Z,14.78
2018-06-03T21:16:14.214Z,12.03
2018-06-03T21:18:42.728Z,13.03
2018-06-03T21:21:11.251Z,12.45
2018-06-03T21:23:39.822Z,12.68
2018-06-03T21:26:08.342Z,15.83
2018-06-03T21:28:36.920Z,10.50
2018-06-03T21:31:05.405Z,12.35
2018-06-03T21:33:33.934Z,11.40
2018-06-03T21:36:02.455Z,10.88
2018-06-03T21:38:30.930Z,9.53
2018-06-03T21:40:59.463Z,9.33
2018-06-03T21:43:27.995Z,10.75
2018-06-03T21:45:56.488Z,12.10
2018-06-03T21:48:24.990Z,9.45
2018-06-03T21:50:53.525Z,10.23
2018-06-03T21:53:22.011Z,9.50
2018-06-03T21:55:50.577Z,9.83
2018-06-03T21:58:19.127Z,10.30
2018-06-03T22:00:47.659Z,12.37
2018-06-03T22:03:16.199Z,11.40
2018-06-03T22:05:44.709Z,10.65
2018-06-03T22:08:13.243Z,11.30
2018-06-03T22:10:41.758Z,13.05
2018-06-03T22:13:10.371Z,10.85
2018-06-03T22:15:38.903Z,9.88
2018-06-03T22:18:07.475Z,10.55
2018-06-03T22:20:36.064Z,12.93
2018-06-03T22:23:04.762Z,11.75
2018-06-03T22:25:33.270Z,12.23
2018-06-03T22:28:01.765Z,10.43
2018-06-03T22:30:30.307Z,11.97
2018-06-03T22:32:58.800Z,10.00
2018-06-03T22:35:27.355Z,11.75
2018-06-03T22:37:55.850Z,11.73
2018-06-03T22:40:24.364Z,10.43
2018-06-03T22:42:52.863Z,9.88
2018-06-03T22:45:21.353Z,9.55
2018-06-03T22:47:49.883Z,10.55
2018-06-03T22:50:18.430Z,9.50
2018-06-03T22:52:46.985Z,11.88
2018-06-03T22:55:15.505Z,9.60
2018-06-03T22:57:53.188Z,11.08
2018-06-03T23:00:25.800Z,11.65
2018-06-03T23:02:59.634Z,12.95
2018-06-03T23:05:28.153Z,13.65
2018-06-03T23:07:56.764Z,9.88
2018-06-03T23:10:25.390Z,13.80
2018-06-03T23:12:54.045Z,14.45
2018-06-03T23:15:22.591Z,13.08
2018-06-03T23:17:51.096Z,11.18
2018-06-03T23:20:19.636Z,12.63
2018-06-03T23:22:48.151Z,14.50
2018-06-03T23:25:16.640Z,12.65
2018-06-03T23:27:45.177Z,13.03
2018-06-03T23:30:13.719Z,13.35
2018-06-03T23:32:42.289Z,17.90
2018-06-03T23:35:10.831Z,13.70
2018-06-03T23:37:39.386Z,14.30
2018-06-03T23:40:07.911Z,13.43
2018-06-03T23:42:36.426Z,18.17
2018-06-03T23:45:05.033Z,22.60
2018-06-03T23:47:33.553Z,16.67
2018-06-03T23:50:02.108Z,13.48
2018-06-03T23:52:30.642Z,17.05
2018-06-03T23:54:59.153Z,16.00
2018-06-03T23:57:27.653Z,12.90
2018-06-03T23:59:56.179Z,16.97
